Norwood, New Jersey
Current Conditions -  °F | °C
As of 9:00 AM on Friday 24 Oct 2014 (Local Time) from KTEB Reporting Station
Overcast Overcast  
Wind Chill: 54°   Ceiling: 3900
Heat Index: 54°   Visibility: 10mi
Dew Point: 43°   Wind: 13mph
Humidity: 67%   Direction: 330°NNW
Pressure: 29.81"   Gusts: NA
Location:  41°N, 73.96°W
Report Text: KTEB 241300Z 33011KT 10SM SCT026 OVC039 12/06 A2981 RMK AO2
Loading
Personal Weather Stations






























Interactive Weather Map
Tropical Storm Tracking
New forecast layout! Learn more

10-Day Weather Forecast

Advertisements
Track Severe Weather on mobile